Time;durP1;ratioP1;P1;durP2;ratioP2;P2;SDS_P1;SDS_P2;PMS_P1;PMS_P2;Temp;Humidity;BMP_temperature;BMP_pressure;BME280_temperature;BME280_humidity;BME280_pressure;Samples;Min_cycle;Max_cycle;Signal;HPM_P1;HPM_P2
2023/06/10 00:01:59;;;;;;;0.00;0.00;;;20.00;99.90;;;;;;5035008;28;20038;-83
2023/06/10 00:04:25;;;;;;;0.20;0.20;;;20.00;99.90;;;;;;5034667;28;20381;-83
2023/06/10 00:06:51;;;;;;;0.10;0.10;;;20.00;99.90;;;;;;5033988;28;20076;-82
2023/06/10 00:09:18;;;;;;;0.10;0.10;;;19.90;99.90;;;;;;5014193;28;20416;-82
2023/06/10 00:11:44;;;;;;;0.10;0.10;;;19.90;99.90;;;;;;5026814;28;20033;-82
2023/06/10 00:14:10;;;;;;;0.20;0.20;;;19.80;99.90;;;;;;5034341;28;20036;-82
2023/06/10 00:16:36;;;;;;;0.30;0.13;;;19.90;99.90;;;;;;5034291;28;20082;-82
2023/06/10 00:19:03;;;;;;;0.00;0.00;;;19.80;99.90;;;;;;5034750;28;20104;-82
2023/06/10 00:21:30;;;;;;;0.20;0.20;;;19.80;99.90;;;;;;5033785;28;20036;-82
2023/06/10 00:23:56;;;;;;;0.65;0.40;;;19.90;99.90;;;;;;5034101;28;20393;-83
2023/06/10 00:26:22;;;;;;;0.30;0.10;;;19.90;99.90;;;;;;5034509;28;20496;-82
2023/06/10 00:28:49;;;;;;;0.08;0.08;;;19.90;99.90;;;;;;5034201;28;20405;-82
2023/06/10 00:31:15;;;;;;;0.10;0.10;;;20.00;99.90;;;;;;5033963;28;20084;-82
2023/06/10 00:33:40;;;;;;;0.00;0.00;;;20.10;99.90;;;;;;5034232;28;20033;-82
2023/06/10 00:36:06;;;;;;;0.28;0.20;;;20.00;99.90;;;;;;5033563;28;20037;-82
2023/06/10 00:38:32;;;;;;;0.00;0.00;;;20.10;99.90;;;;;;5033772;28;20100;-82
2023/06/10 00:40:57;;;;;;;0.05;0.05;;;20.00;99.90;;;;;;5033862;28;20081;-82
2023/06/10 00:43:23;;;;;;;0.10;0.10;;;20.00;99.90;;;;;;5034040;28;20393;-82
2023/06/10 00:45:49;;;;;;;0.00;0.00;;;19.90;99.90;;;;;;5033750;28;20034;-82
2023/06/10 00:48:15;;;;;;;0.08;0.08;;;19.80;99.90;;;;;;5033712;28;20029;-82
2023/06/10 00:50:41;;;;;;;0.10;0.10;;;19.80;99.90;;;;;;5033317;28;20112;-82
2023/06/10 00:53:07;;;;;;;0.00;0.00;;;19.70;99.90;;;;;;5033169;28;20056;-83
2023/06/10 00:55:33;;;;;;;0.80;0.20;;;19.60;99.90;;;;;;5033631;28;20022;-82
2023/06/10 00:58:00;;;;;;;0.08;0.08;;;19.70;99.90;;;;;;5033470;28;20095;-82
2023/06/10 01:00:25;;;;;;;0.03;0.03;;;19.70;99.90;;;;;;5033698;28;20026;-82
2023/06/10 01:02:55;;;;;;;0.10;0.10;;;19.60;99.90;;;;;;5033655;28;20028;-82
2023/06/10 01:05:21;;;;;;;0.00;0.00;;;19.70;99.90;;;;;;5032969;28;20036;-82
2023/06/10 01:07:53;;;;;;;0.00;0.00;;;19.70;99.90;;;;;;5033767;28;20099;-82
2023/06/10 01:10:23;;;;;;;0.10;0.10;;;19.70;99.90;;;;;;5033499;28;20048;-82
2023/06/10 01:13:02;;;;;;;0.00;0.00;;;19.60;99.90;;;;;;5033190;28;20402;-82
2023/06/10 01:15:30;;;;;;;0.10;0.10;;;19.60;99.90;;;;;;5032959;28;20084;-82
2023/06/10 01:18:03;;;;;;;10.10;1.00;;;19.60;99.90;;;;;;5033025;28;20393;-81
2023/06/10 01:20:31;;;;;;;0.00;0.00;;;19.60;99.90;;;;;;5032734;28;20018;-82
2023/06/10 01:22:58;;;;;;;0.00;0.00;;;19.70;99.90;;;;;;5033415;28;20029;-82
2023/06/10 01:25:29;;;;;;;0.10;0.10;;;19.70;99.90;;;;;;5033022;28;20494;-82
2023/06/10 01:28:10;;;;;;;2.30;0.10;;;19.80;99.90;;;;;;5032840;28;20282;-82
2023/06/10 01:31:33;;;;;;;0.00;0.00;;;19.70;99.90;;;;;;5033075;28;20385;-82
2023/06/10 01:34:00;;;;;;;0.00;0.00;;;19.60;99.90;;;;;;4952295;29;20031;-82
2023/06/10 01:36:27;;;;;;;0.00;0.00;;;19.60;99.90;;;;;;4953410;29;20603;-83
2023/06/10 01:38:55;;;;;;;0.00;0.00;;;19.60;99.90;;;;;;4952915;29;20443;-82
2023/06/10 01:41:21;;;;;;;0.10;0.10;;;19.50;99.90;;;;;;4952372;29;20054;-82
2023/06/10 01:43:47;;;;;;;0.00;0.00;;;19.60;99.90;;;;;;4952715;29;20027;-82
2023/06/10 01:46:14;;;;;;;0.00;0.00;;;19.60;99.90;;;;;;4952643;29;20039;-83
2023/06/10 01:48:40;;;;;;;0.00;0.00;;;19.70;99.90;;;;;;4952578;29;20063;-82
2023/06/10 01:51:06;;;;;;;0.00;0.00;;;19.60;99.90;;;;;;4952483;29;20028;-82
2023/06/10 01:53:31;;;;;;;0.10;0.10;;;19.70;99.90;;;;;;4952545;29;20058;-82
2023/06/10 01:55:57;;;;;;;0.10;0.10;;;19.70;99.90;;;;;;4952661;29;20093;-83
2023/06/10 01:58:23;;;;;;;0.10;0.10;;;19.70;99.90;;;;;;4952828;29;20530;-83
2023/06/10 02:00:48;;;;;;;0.60;0.35;;;19.80;99.90;;;;;;4952241;29;20035;-82
2023/06/10 02:03:14;;;;;;;0.03;0.03;;;19.80;99.90;;;;;;4951804;28;20034;-82
2023/06/10 02:05:39;;;;;;;0.10;0.10;;;19.70;99.90;;;;;;4952308;29;20034;-82
2023/06/10 02:08:05;;;;;;;0.10;0.10;;;19.70;99.90;;;;;;4993344;28;20125;-83
2023/06/10 02:10:31;;;;;;;0.00;0.00;;;19.70;99.90;;;;;;5032669;28;20035;-82
2023/06/10 02:12:57;;;;;;;0.00;0.00;;;19.70;99.90;;;;;;5032445;28;20021;-82
2023/06/10 02:15:22;;;;;;;0.00;0.00;;;19.70;99.90;;;;;;5032327;28;20445;-83
2023/06/10 02:17:49;;;;;;;0.00;0.00;;;19.70;99.90;;;;;;5031884;28;20480;-82
2023/06/10 02:20:14;;;;;;;0.00;0.00;;;19.70;99.90;;;;;;5032450;28;20104;-82
2023/06/10 02:22:40;;;;;;;0.10;0.10;;;19.70;99.90;;;;;;5032332;28;20109;-82
2023/06/10 02:25:06;;;;;;;0.00;0.00;;;19.60;99.90;;;;;;5032199;28;20438;-82
2023/06/10 02:27:32;;;;;;;0.20;0.20;;;19.70;99.90;;;;;;5031911;28;20041;-82
2023/06/10 02:29:58;;;;;;;0.22;0.22;;;19.60;99.90;;;;;;5031769;28;20041;-82
2023/06/10 02:32:24;;;;;;;0.10;0.10;;;19.60;99.90;;;;;;5032958;28;20068;-82
2023/06/10 02:34:49;;;;;;;0.00;0.00;;;19.60;99.90;;;;;;5032165;28;20505;-83
2023/06/10 02:37:15;;;;;;;0.00;0.00;;;19.70;99.90;;;;;;5032079;28;20030;-83
2023/06/10 02:39:41;;;;;;;0.63;0.38;;;19.60;99.90;;;;;;5032435;28;20033;-82
2023/06/10 02:42:07;;;;;;;0.00;0.00;;;19.50;99.90;;;;;;5031938;28;20547;-82
2023/06/10 02:44:33;;;;;;;0.00;0.00;;;19.60;99.90;;;;;;5032170;28;20026;-82
2023/06/10 02:46:58;;;;;;;0.03;0.03;;;19.80;99.90;;;;;;5031407;28;20124;-82
2023/06/10 02:49:24;;;;;;;0.30;0.30;;;19.80;99.90;;;;;;5031972;28;20060;-82
2023/06/10 02:51:53;;;;;;;0.10;0.10;;;19.70;99.90;;;;;;5033264;28;20021;-82
2023/06/10 02:54:19;;;;;;;0.50;0.30;;;19.60;99.90;;;;;;5032069;28;20489;-82
2023/06/10 02:56:45;;;;;;;0.00;0.00;;;19.60;99.90;;;;;;5032051;28;20041;-83
2023/06/10 02:59:11;;;;;;;0.00;0.00;;;19.60;99.90;;;;;;5031948;28;20390;-82
2023/06/10 03:01:37;;;;;;;0.08;0.08;;;19.60;99.90;;;;;;5031647;28;20026;-82
2023/06/10 03:04:04;;;;;;;0.05;0.05;;;19.60;99.90;;;;;;5031942;28;20021;-82
2023/06/10 03:06:30;;;;;;;0.00;0.00;;;19.60;99.90;;;;;;5032139;28;20421;-82
2023/06/10 03:08:55;;;;;;;0.10;0.10;;;19.70;99.90;;;;;;5031658;28;20101;-82
2023/06/10 03:11:21;;;;;;;0.00;0.00;;;19.60;99.90;;;;;;5032838;28;20033;-82
2023/06/10 03:13:46;;;;;;;0.10;0.10;;;19.70;99.90;;;;;;5031924;28;20017;-81
2023/06/10 03:16:12;;;;;;;0.03;0.03;;;19.60;99.90;;;;;;5032810;28;20095;-82
2023/06/10 03:18:38;;;;;;;0.10;0.10;;;19.60;99.90;;;;;;5035635;28;20048;-82
2023/06/10 03:21:03;;;;;;;0.00;0.00;;;19.60;99.90;;;;;;5035716;28;20034;-81
2023/06/10 03:23:29;;;;;;;0.00;0.00;;;19.50;99.90;;;;;;5035431;28;20021;-82
2023/06/10 03:25:55;;;;;;;0.00;0.00;;;19.50;99.90;;;;;;5035384;28;20033;-82
2023/06/10 03:28:21;;;;;;;0.00;0.00;;;19.50;99.90;;;;;;5035160;28;20386;-82
2023/06/10 03:30:47;;;;;;;0.25;0.20;;;19.50;99.90;;;;;;5034694;28;20030;-81
2023/06/10 03:33:13;;;;;;;0.08;0.08;;;19.50;99.90;;;;;;5035905;28;20018;-82
2023/06/10 03:35:39;;;;;;;0.10;0.10;;;19.60;99.90;;;;;;5035481;28;20120;-83
2023/06/10 03:38:06;;;;;;;0.10;0.10;;;19.60;99.90;;;;;;5035591;28;20148;-82
2023/06/10 03:40:31;;;;;;;0.10;0.10;;;19.50;99.90;;;;;;5034832;28;20042;-82
2023/06/10 03:42:58;;;;;;;0.00;0.00;;;19.50;99.90;;;;;;5035094;28;20401;-82
2023/06/10 03:45:24;;;;;;;0.00;0.00;;;19.50;99.90;;;;;;5034676;28;20095;-82
2023/06/10 03:47:50;;;;;;;0.10;0.10;;;19.50;99.90;;;;;;5034962;28;20036;-82
2023/06/10 03:50:16;;;;;;;0.15;0.15;;;19.50;99.90;;;;;;5035334;28;20108;-82
2023/06/10 03:52:42;;;;;;;0.32;0.10;;;19.40;99.90;;;;;;5034919;28;20164;-82
2023/06/10 03:55:08;;;;;;;0.10;0.10;;;19.40;99.90;;;;;;5034805;28;20017;-82
2023/06/10 03:57:33;;;;;;;0.00;0.00;;;19.40;99.90;;;;;;5034678;28;20473;-82
2023/06/10 03:59:59;;;;;;;0.17;0.10;;;19.50;99.90;;;;;;5034202;28;20059;-82
2023/06/10 04:02:25;;;;;;;0.00;0.00;;;19.50;99.90;;;;;;5035213;28;20389;-82
2023/06/10 04:04:51;;;;;;;0.10;0.10;;;19.50;99.90;;;;;;5034685;28;20099;-82
2023/06/10 04:07:18;;;;;;;0.00;0.00;;;19.50;99.90;;;;;;5034553;28;20379;-82
2023/06/10 04:09:44;;;;;;;0.22;0.10;;;19.60;99.90;;;;;;5034615;28;20029;-82
2023/06/10 04:12:10;;;;;;;0.00;0.00;;;19.70;99.90;;;;;;5034529;28;20033;-82
2023/06/10 04:14:37;;;;;;;0.00;0.00;;;19.70;99.90;;;;;;5034398;28;20036;-82
2023/06/10 04:17:06;;;;;;;0.10;0.10;;;19.70;99.90;;;;;;5034532;28;20026;-82
2023/06/10 04:19:32;;;;;;;0.00;0.00;;;19.60;99.90;;;;;;5034648;28;20021;-82
2023/06/10 04:21:58;;;;;;;0.13;0.13;;;19.60;99.90;;;;;;5034497;28;20037;-82
2023/06/10 04:24:23;;;;;;;0.20;0.20;;;19.50;99.90;;;;;;5034489;28;20033;-83
2023/06/10 04:26:49;;;;;;;0.25;0.25;;;19.50;99.90;;;;;;5034076;28;20065;-82
2023/06/10 04:29:15;;;;;;;0.00;0.00;;;19.60;99.90;;;;;;5033791;28;20449;-83
2023/06/10 04:31:40;;;;;;;0.10;0.10;;;19.60;99.90;;;;;;5034373;28;20080;-82
2023/06/10 04:34:07;;;;;;;0.00;0.00;;;19.60;99.90;;;;;;5033861;28;20029;-82
2023/06/10 04:36:33;;;;;;;0.10;0.10;;;19.70;99.90;;;;;;5034185;28;20374;-82
2023/06/10 04:38:58;;;;;;;0.00;0.00;;;19.50;99.90;;;;;;5033984;28;20033;-82
2023/06/10 04:41:25;;;;;;;0.00;0.00;;;19.50;99.90;;;;;;5033456;28;20056;-82
2023/06/10 04:43:51;;;;;;;0.00;0.00;;;19.50;99.90;;;;;;5033646;28;20025;-82
2023/06/10 04:46:17;;;;;;;0.00;0.00;;;19.50;99.90;;;;;;5033852;28;20375;-82
2023/06/10 04:48:42;;;;;;;1.55;0.10;;;19.60;99.90;;;;;;5033689;28;20029;-82
2023/06/10 04:51:08;;;;;;;0.00;0.00;;;19.60;99.90;;;;;;5034240;28;20036;-83
2023/06/10 04:53:33;;;;;;;0.00;0.00;;;19.70;99.90;;;;;;5033622;28;20025;-85
2023/06/10 04:55:59;;;;;;;0.00;0.00;;;19.70;99.90;;;;;;5033459;28;20032;-84
2023/06/10 04:58:24;;;;;;;0.00;0.00;;;19.70;99.90;;;;;;5033368;28;20433;-85
2023/06/10 05:00:50;;;;;;;0.10;0.10;;;19.70;99.90;;;;;;5016052;28;20281;-85
2023/06/10 05:03:15;;;;;;;0.00;0.00;;;19.70;99.90;;;;;;5033817;28;20063;-85
2023/06/10 05:05:41;;;;;;;0.00;0.00;;;19.80;99.90;;;;;;5033470;28;20030;-85
2023/06/10 05:08:07;;;;;;;0.00;0.00;;;19.90;99.90;;;;;;5033502;28;20033;-85
2023/06/10 05:10:34;;;;;;;0.28;0.10;;;20.00;99.90;;;;;;5033468;28;20496;-85
2023/06/10 05:12:59;;;;;;;0.00;0.00;;;20.10;99.90;;;;;;5033320;28;20382;-85
2023/06/10 05:15:25;;;;;;;0.00;0.00;;;20.00;99.90;;;;;;5033386;28;20025;-85
2023/06/10 05:17:51;;;;;;;0.03;0.03;;;20.20;99.90;;;;;;5033429;28;20106;-85
2023/06/10 05:20:18;;;;;;;0.00;0.00;;;20.10;99.90;;;;;;5033058;28;20404;-85
2023/06/10 05:22:44;;;;;;;0.00;0.00;;;20.10;99.90;;;;;;5033075;28;20048;-84
2023/06/10 05:25:10;;;;;;;0.00;0.00;;;20.20;99.90;;;;;;5033417;28;20029;-85
2023/06/10 05:27:36;;;;;;;0.00;0.00;;;20.30;99.90;;;;;;5032605;28;20093;-85
2023/06/10 05:30:03;;;;;;;0.00;0.00;;;20.20;99.90;;;;;;5032806;28;20075;-85
2023/06/10 05:32:28;;;;;;;0.00;0.00;;;20.30;99.90;;;;;;5032906;28;20079;-85
2023/06/10 05:34:54;;;;;;;0.00;0.00;;;20.30;99.90;;;;;;5033441;28;20030;-85
2023/06/10 05:37:20;;;;;;;0.45;0.30;;;20.30;99.90;;;;;;5032788;28;20497;-85
2023/06/10 05:39:45;;;;;;;0.00;0.00;;;20.30;99.90;;;;;;5031836;28;20098;-83
2023/06/10 05:42:11;;;;;;;0.10;0.10;;;20.40;99.90;;;;;;5032563;28;20053;-82
2023/06/10 05:44:37;;;;;;;0.00;0.00;;;20.40;99.90;;;;;;5014704;28;20406;-82
2023/06/10 05:47:03;;;;;;;0.00;0.00;;;20.40;99.90;;;;;;5034386;28;20072;-82
2023/06/10 05:49:28;;;;;;;0.10;0.10;;;20.40;99.90;;;;;;5012967;28;20026;-82
2023/06/10 05:51:55;;;;;;;0.10;0.10;;;20.40;99.90;;;;;;5032762;28;20548;-82
2023/06/10 05:54:21;;;;;;;0.00;0.00;;;20.40;99.90;;;;;;5032082;28;20025;-82
2023/06/10 05:56:47;;;;;;;0.20;0.10;;;20.60;99.90;;;;;;5032816;28;20026;-82
2023/06/10 05:59:12;;;;;;;0.00;0.00;;;20.50;99.90;;;;;;5011574;28;20026;-82
2023/06/10 06:01:39;;;;;;;0.00;0.00;;;20.40;99.90;;;;;;5031905;28;20061;-82
2023/06/10 06:04:04;;;;;;;0.15;0.15;;;20.50;99.90;;;;;;5032774;28;20025;-82
2023/06/10 06:06:30;;;;;;;0.00;0.00;;;20.50;99.90;;;;;;5032312;28;20025;-81
2023/06/10 06:08:56;;;;;;;0.00;0.00;;;20.50;99.90;;;;;;5031856;28;20037;-82
2023/06/10 06:11:21;;;;;;;0.20;0.20;;;20.60;99.90;;;;;;5032064;28;20028;-82
2023/06/10 06:13:48;;;;;;;0.38;0.38;;;20.60;99.90;;;;;;5032249;28;20026;-82
2023/06/10 06:16:14;;;;;;;0.10;0.10;;;20.70;99.90;;;;;;5032624;28;20068;-82
2023/06/10 06:18:39;;;;;;;0.08;0.08;;;20.70;99.90;;;;;;5026044;28;20034;-81
2023/06/10 06:21:05;;;;;;;0.10;0.10;;;20.70;99.90;;;;;;5019150;28;20037;-82
2023/06/10 06:23:31;;;;;;;0.10;0.10;;;20.70;99.90;;;;;;5018729;28;20028;-82
2023/06/10 06:25:56;;;;;;;0.10;0.10;;;20.80;99.90;;;;;;5018108;28;20018;-82
2023/06/10 06:28:22;;;;;;;0.10;0.10;;;20.90;99.90;;;;;;5019569;28;20475;-82
2023/06/10 06:30:48;;;;;;;0.15;0.10;;;21.10;99.90;;;;;;5020397;28;20374;-83
2023/06/10 06:33:13;;;;;;;4.63;1.02;;;21.30;99.90;;;;;;5020449;28;20066;-83
2023/06/10 06:35:40;;;;;;;0.20;0.20;;;21.20;99.90;;;;;;5019715;28;20083;-82
2023/06/10 06:38:05;;;;;;;1.88;0.90;;;21.30;99.90;;;;;;5017806;28;20061;-82
2023/06/10 06:40:31;;;;;;;0.10;0.10;;;21.40;99.90;;;;;;5020536;28;20084;-82
2023/06/10 06:42:56;;;;;;;0.00;0.00;;;21.40;99.90;;;;;;5022140;28;20040;-82
2023/06/10 06:45:24;;;;;;;0.35;0.35;;;21.50;99.90;;;;;;5019531;28;20464;-82
2023/06/10 06:47:51;;;;;;;0.10;0.10;;;21.50;99.90;;;;;;5018265;28;20037;-81
2023/06/10 06:50:16;;;;;;;2.50;0.63;;;21.60;99.90;;;;;;5018543;28;20025;-83
2023/06/10 06:52:42;;;;;;;0.25;0.20;;;21.60;99.90;;;;;;5022200;28;20038;-83
2023/06/10 06:55:08;;;;;;;1.10;0.30;;;21.70;99.90;;;;;;5022770;28;20048;-84
2023/06/10 06:57:33;;;;;;;0.00;0.00;;;21.70;99.90;;;;;;5024124;28;20029;-82
2023/06/10 06:59:59;;;;;;;0.20;0.20;;;21.80;99.90;;;;;;5022917;28;20068;-82
2023/06/10 07:02:24;;;;;;;0.03;0.03;;;21.80;99.90;;;;;;5023208;28;20029;-82
2023/06/10 07:04:50;;;;;;;1.10;0.52;;;21.80;99.90;;;;;;5033134;28;20040;-82
2023/06/10 07:07:16;;;;;;;0.17;0.17;;;21.90;99.90;;;;;;5035192;28;20862;-82
2023/06/10 07:09:41;;;;;;;0.20;0.20;;;22.00;99.90;;;;;;5036470;28;20443;-82
2023/06/10 07:12:07;;;;;;;0.10;0.10;;;22.00;99.90;;;;;;5035977;28;20032;-82
2023/06/10 07:14:33;;;;;;;0.73;0.52;;;21.90;99.90;;;;;;5035683;28;20060;-83
2023/06/10 07:16:59;;;;;;;0.10;0.10;;;21.90;99.90;;;;;;5035424;28;20021;-82
2023/06/10 07:19:24;;;;;;;0.17;0.17;;;21.90;99.90;;;;;;5035712;28;20477;-82
2023/06/10 07:21:50;;;;;;;0.00;0.00;;;21.90;99.90;;;;;;5035022;28;20029;-82
2023/06/10 07:24:16;;;;;;;0.00;0.00;;;22.00;99.90;;;;;;5035303;28;20034;-82
2023/06/10 07:26:41;;;;;;;0.20;0.10;;;22.10;99.90;;;;;;5035553;28;20458;-82
2023/06/10 07:29:07;;;;;;;0.00;0.00;;;22.20;99.90;;;;;;5035332;28;20025;-82
2023/06/10 07:31:32;;;;;;;0.05;0.05;;;22.30;99.90;;;;;;5035084;28;20069;-82
2023/06/10 07:33:58;;;;;;;0.10;0.10;;;22.30;99.90;;;;;;5035430;28;20092;-83
2023/06/10 07:36:27;;;;;;;0.30;0.30;;;22.40;99.90;;;;;;5035035;28;20029;-85
2023/06/10 07:38:53;;;;;;;0.22;0.15;;;22.40;99.90;;;;;;5035264;28;20036;-85
2023/06/10 07:41:19;;;;;;;0.05;0.05;;;22.40;99.90;;;;;;5034650;28;20046;-85
2023/06/10 07:43:45;;;;;;;0.30;0.30;;;22.40;99.90;;;;;;5035084;28;20452;-84
2023/06/10 07:46:10;;;;;;;0.28;0.22;;;22.60;99.90;;;;;;5035344;28;20029;-85
2023/06/10 07:48:36;;;;;;;0.45;0.45;;;22.60;99.90;;;;;;5034889;28;20104;-84
2023/06/10 07:51:01;;;;;;;0.08;0.08;;;22.60;99.90;;;;;;5034492;28;20115;-85
2023/06/10 07:53:27;;;;;;;0.20;0.20;;;22.70;99.90;;;;;;5034776;28;20041;-85
2023/06/10 07:55:53;;;;;;;0.13;0.13;;;22.60;99.90;;;;;;5034703;28;20028;-84
2023/06/10 07:58:18;;;;;;;0.20;0.20;;;22.60;99.90;;;;;;5028802;28;20033;-86
2023/06/10 08:00:44;;;;;;;0.30;0.30;;;22.70;99.90;;;;;;5021328;28;20117;-85
2023/06/10 08:03:10;;;;;;;0.10;0.10;;;22.80;99.90;;;;;;5027144;28;20421;-85
2023/06/10 08:05:35;;;;;;;0.10;0.10;;;22.80;99.90;;;;;;5034506;28;20437;-82
2023/06/10 08:08:01;;;;;;;0.10;0.10;;;22.70;99.90;;;;;;5021799;28;20107;-82
2023/06/10 08:10:26;;;;;;;0.10;0.10;;;22.80;99.90;;;;;;5016603;28;20026;-82
2023/06/10 08:12:52;;;;;;;0.30;0.30;;;22.70;99.90;;;;;;5034468;28;20034;-83
2023/06/10 08:15:18;;;;;;;0.32;0.32;;;22.80;99.90;;;;;;5020144;28;20025;-82
2023/06/10 08:17:44;;;;;;;0.20;0.20;;;23.10;99.90;;;;;;5015821;28;20075;-83
2023/06/10 08:20:10;;;;;;;0.20;0.20;;;23.10;99.90;;;;;;5033341;28;20104;-83
2023/06/10 08:22:35;;;;;;;0.10;0.10;;;23.20;99.90;;;;;;5034239;28;20066;-83
2023/06/10 08:25:01;;;;;;;0.30;0.20;;;23.40;99.90;;;;;;5034319;28;20037;-83
2023/06/10 08:27:27;;;;;;;0.40;0.32;;;23.60;99.90;;;;;;5033994;28;20037;-82
2023/06/10 08:29:52;;;;;;;1.60;0.98;;;23.70;99.90;;;;;;5034342;28;20024;-83
2023/06/10 08:32:18;;;;;;;0.10;0.10;;;23.70;99.90;;;;;;5034073;28;20030;-83
2023/06/10 08:34:43;;;;;;;0.10;0.10;;;24.10;99.90;;;;;;5016212;28;20033;-83
2023/06/10 08:37:09;;;;;;;0.32;0.10;;;24.30;99.90;;;;;;5034069;28;20057;-82
2023/06/10 08:39:35;;;;;;;0.40;0.35;;;24.40;99.90;;;;;;5033730;28;20033;-83
2023/06/10 08:42:19;;;;;;;0.05;0.05;;;24.40;99.90;;;;;;5033692;28;20030;-83
2023/06/10 08:44:46;;;;;;;2.83;0.90;;;24.50;99.90;;;;;;5033915;28;20109;-82
2023/06/10 08:47:15;;;;;;;0.03;0.03;;;24.40;99.90;;;;;;5033730;28;20033;-83
2023/06/10 08:49:47;;;;;;;0.20;0.10;;;24.30;99.90;;;;;;5033515;28;20132;-82
2023/06/10 08:52:18;;;;;;;0.10;0.10;;;24.20;99.90;;;;;;5034198;28;20025;-83
2023/06/10 08:54:56;;;;;;;0.43;0.22;;;24.40;99.90;;;;;;5033655;28;20024;-82
2023/06/10 08:57:22;;;;;;;0.30;0.30;;;24.30;99.90;;;;;;5033535;28;20545;-82
2023/06/10 08:59:49;;;;;;;0.00;0.00;;;24.30;99.90;;;;;;5033598;28;20053;-83
2023/06/10 09:02:15;;;;;;;0.10;0.10;;;24.40;99.90;;;;;;5033412;28;20489;-83
2023/06/10 09:04:44;;;;;;;0.28;0.20;;;24.20;99.90;;;;;;5033957;28;20486;-82
2023/06/10 09:07:12;;;;;;;0.10;0.10;;;24.40;99.90;;;;;;5033163;28;20379;-82
2023/06/10 09:09:38;;;;;;;0.22;0.22;;;24.20;99.90;;;;;;5033439;28;20101;-83
2023/06/10 09:12:04;;;;;;;0.20;0.20;;;24.20;99.90;;;;;;5033682;28;20021;-82
2023/06/10 09:14:30;;;;;;;0.32;0.32;;;24.10;99.90;;;;;;5032593;28;20035;-83
2023/06/10 09:16:57;;;;;;;0.10;0.10;;;24.10;99.90;;;;;;5033216;28;20104;-83
2023/06/10 09:19:25;;;;;;;0.10;0.10;;;24.30;99.90;;;;;;5032741;28;20026;-83
2023/06/10 09:21:50;;;;;;;0.00;0.00;;;24.40;99.90;;;;;;5033114;28;20262;-83
2023/06/10 09:24:16;;;;;;;0.00;0.00;;;24.50;99.90;;;;;;5033425;28;20029;-82
2023/06/10 09:26:43;;;;;;;0.00;0.00;;;24.80;99.90;;;;;;5032815;28;20061;-83
2023/06/10 09:29:11;;;;;;;0.20;0.20;;;24.90;99.90;;;;;;5032991;28;20040;-83
2023/06/10 09:31:38;;;;;;;0.22;0.22;;;24.80;99.90;;;;;;5032638;28;20034;-82
2023/06/10 09:34:12;;;;;;;0.30;0.10;;;24.90;99.90;;;;;;5033010;28;20033;-83
2023/06/10 09:36:38;;;;;;;0.20;0.20;;;25.00;99.90;;;;;;5032714;28;20453;-83
2023/06/10 09:39:04;;;;;;;0.30;0.30;;;25.00;99.90;;;;;;5032919;28;20075;-82
2023/06/10 09:41:40;;;;;;;0.32;0.30;;;25.10;99.90;;;;;;5032472;28;20056;-83
2023/06/10 09:44:17;;;;;;;0.00;0.00;;;25.30;99.90;;;;;;5032711;28;20397;-83
2023/06/10 09:46:45;;;;;;;0.20;0.20;;;25.40;99.90;;;;;;5032234;28;20033;-83
2023/06/10 09:49:11;;;;;;;0.10;0.10;;;25.40;99.90;;;;;;5032663;28;20422;-83
2023/06/10 09:51:37;;;;;;;0.00;0.00;;;25.20;99.90;;;;;;5032881;28;20160;-83
2023/06/10 09:54:03;;;;;;;0.10;0.10;;;25.40;99.90;;;;;;5032778;28;20029;-83
2023/06/10 09:56:35;;;;;;;0.20;0.20;;;25.40;99.90;;;;;;5032537;28;20029;-83
2023/06/10 09:59:02;;;;;;;0.05;0.05;;;25.50;99.90;;;;;;5033015;28;20097;-83
2023/06/10 10:01:30;;;;;;;0.05;0.05;;;25.70;99.90;;;;;;5031981;28;20397;-83
2023/06/10 10:03:55;;;;;;;0.10;0.10;;;25.40;99.90;;;;;;5032133;28;20025;-82
2023/06/10 10:06:21;;;;;;;0.17;0.10;;;25.00;99.90;;;;;;5032341;28;20036;-83
2023/06/10 10:08:49;;;;;;;0.10;0.10;;;24.80;99.90;;;;;;5032829;28;20041;-83
2023/06/10 10:11:17;;;;;;;0.50;0.20;;;24.60;99.90;;;;;;5032340;28;20022;-83
2023/06/10 10:13:45;;;;;;;0.00;0.00;;;24.30;99.90;;;;;;5011515;28;20026;-83
2023/06/10 10:16:30;;;;;;;0.08;0.08;;;24.40;99.90;;;;;;5027578;28;20044;-83
2023/06/10 10:18:58;;;;;;;0.00;0.00;;;24.50;99.90;;;;;;5032248;28;20033;-83
2023/06/10 10:21:35;;;;;;;0.05;0.05;;;24.60;99.90;;;;;;5032529;28;20030;-83
2023/06/10 10:24:18;;;;;;;0.10;0.10;;;24.60;99.90;;;;;;5032605;28;20030;-83
2023/06/10 10:26:46;;;;;;;0.00;0.00;;;24.50;99.90;;;;;;5032128;28;20030;-83
2023/06/10 10:29:23;;;;;;;0.10;0.10;;;24.70;99.90;;;;;;5032033;28;20068;-83
2023/06/10 10:31:53;;;;;;;0.17;0.17;;;24.90;99.90;;;;;;5031705;28;20040;-82
2023/06/10 10:34:30;;;;;;;0.10;0.10;;;24.80;99.90;;;;;;5032165;28;20029;-83
2023/06/10 10:36:56;;;;;;;0.10;0.10;;;24.80;99.90;;;;;;5032706;28;20021;-83
2023/06/10 10:39:22;;;;;;;0.20;0.20;;;24.90;99.90;;;;;;5031791;28;20029;-82
2023/06/10 10:41:49;;;;;;;0.10;0.10;;;25.00;99.90;;;;;;5032829;28;20431;-82
2023/06/10 10:44:16;;;;;;;0.20;0.20;;;25.00;99.90;;;;;;5032025;28;20100;-82
2023/06/10 10:46:43;;;;;;;0.52;0.10;;;25.20;99.90;;;;;;5031862;28;20038;-83
2023/06/10 10:49:10;;;;;;;0.20;0.20;;;25.10;99.90;;;;;;5031949;28;20021;-83
2023/06/10 10:51:37;;;;;;;1.45;0.43;;;25.20;99.90;;;;;;5014405;28;20179;-83
2023/06/10 10:54:15;;;;;;;0.28;0.17;;;25.20;99.90;;;;;;5032267;28;20021;-83
2023/06/10 10:57:10;;;;;;;0.00;0.00;;;25.30;99.90;;;;;;5031615;28;20022;-83
2023/06/10 10:59:56;;;;;;;0.75;0.55;;;25.50;99.90;;;;;;5031470;28;20370;-83
2023/06/10 11:02:43;;;;;;;0.75;0.10;;;25.40;99.90;;;;;;5032011;28;20021;-83
2023/06/10 11:05:16;;;;;;;0.10;0.10;;;25.50;99.90;;;;;;5031864;28;20072;-83
2023/06/10 11:07:52;;;;;;;0.00;0.00;;;25.80;99.90;;;;;;5032220;28;20025;-82
2023/06/10 11:10:28;;;;;;;0.22;0.22;;;25.90;99.90;;;;;;5031906;28;20113;-83
2023/06/10 11:12:54;;;;;;;0.00;0.00;;;26.00;99.90;;;;;;5031683;28;20124;-82
2023/06/10 11:15:27;;;;;;;0.00;0.00;;;25.90;99.90;;;;;;5031462;28;20426;-83
2023/06/10 11:18:11;;;;;;;0.20;0.20;;;26.10;99.90;;;;;;5031663;28;20024;-83
2023/06/10 11:20:58;;;;;;;0.10;0.10;;;26.20;99.90;;;;;;5031706;28;20026;-83
2023/06/10 11:23:27;;;;;;;0.00;0.00;;;26.20;99.90;;;;;;5031655;28;20053;-83
2023/06/10 11:26:13;;;;;;;0.22;0.08;;;26.30;99.90;;;;;;5031637;28;20029;-83
2023/06/10 11:28:46;;;;;;;0.00;0.00;;;26.30;99.90;;;;;;5031460;28;20120;-83
2023/06/10 11:31:30;;;;;;;0.10;0.10;;;26.50;99.90;;;;;;5031447;28;20030;-83
2023/06/10 11:34:00;;;;;;;0.00;0.00;;;26.40;99.90;;;;;;5031690;28;20099;-83
2023/06/10 11:36:27;;;;;;;0.20;0.10;;;27.00;99.90;;;;;;5031754;28;20025;-83
2023/06/10 11:39:01;;;;;;;0.08;0.08;;;27.20;99.90;;;;;;5035135;28;20474;-83
2023/06/10 11:41:28;;;;;;;0.10;0.10;;;27.30;99.90;;;;;;5034480;28;20057;-83
2023/06/10 11:43:57;;;;;;;0.10;0.10;;;27.30;99.90;;;;;;5034916;28;20055;-82
2023/06/10 11:46:23;;;;;;;0.20;0.10;;;27.70;99.90;;;;;;5035042;28;20029;-83
2023/06/10 11:48:53;;;;;;;0.00;0.00;;;27.80;99.90;;;;;;5035025;28;20627;-83
2023/06/10 11:51:20;;;;;;;0.10;0.10;;;28.00;99.90;;;;;;5034934;28;20064;-83
2023/06/10 11:53:47;;;;;;;0.10;0.10;;;28.10;99.90;;;;;;5034957;28;20044;-83
2023/06/10 11:56:12;;;;;;;0.10;0.10;;;27.90;99.90;;;;;;5035096;28;20025;-82
2023/06/10 11:58:43;;;;;;;0.22;0.22;;;28.10;99.90;;;;;;5034530;28;20029;-83
2023/06/10 12:01:09;;;;;;;0.40;0.22;;;28.10;99.90;;;;;;5034653;28;20104;-83
2023/06/10 12:03:38;;;;;;;0.22;0.22;;;28.00;99.90;;;;;;5034788;28;20461;-83
2023/06/10 12:06:06;;;;;;;0.50;0.20;;;27.90;99.90;;;;;;5034442;28;20021;-83
2023/06/10 12:08:32;;;;;;;0.10;0.10;;;27.70;99.90;;;;;;5034894;28;20029;-84
2023/06/10 12:10:59;;;;;;;0.05;0.05;;;27.60;99.90;;;;;;5034503;28;20025;-83
2023/06/10 12:13:27;;;;;;;0.25;0.20;;;27.70;99.90;;;;;;5034281;28;20029;-83
2023/06/10 12:15:53;;;;;;;0.10;0.10;;;27.80;99.90;;;;;;5013371;28;20025;-83
2023/06/10 12:18:23;;;;;;;0.00;0.00;;;27.70;99.90;;;;;;5031488;28;20119;-83
2023/06/10 12:20:50;;;;;;;0.10;0.10;;;27.50;99.90;;;;;;5034323;28;20512;-83
2023/06/10 12:23:17;;;;;;;0.10;0.10;;;27.70;99.90;;;;;;5034233;28;20028;-82
2023/06/10 12:25:54;;;;;;;0.32;0.32;;;27.40;99.90;;;;;;5025856;28;20029;-83
2023/06/10 12:28:24;;;;;;;0.20;0.17;;;27.50;99.90;;;;;;5034065;28;20045;-83
2023/06/10 12:30:51;;;;;;;0.20;0.20;;;27.30;99.90;;;;;;5034016;28;20179;-83
2023/06/10 12:33:17;;;;;;;0.15;0.15;;;27.50;99.90;;;;;;5034448;28;20102;-83
2023/06/10 12:35:52;;;;;;;0.13;0.13;;;27.50;99.90;;;;;;5034227;28;20021;-83
2023/06/10 12:38:24;;;;;;;0.10;0.10;;;27.60;99.90;;;;;;5034047;28;20034;-83
2023/06/10 12:40:50;;;;;;;0.15;0.15;;;27.80;99.90;;;;;;5033293;28;20103;-83
2023/06/10 12:43:23;;;;;;;0.20;0.20;;;27.90;99.90;;;;;;5033611;28;20034;-83
2023/06/10 12:45:50;;;;;;;0.00;0.00;;;28.10;99.90;;;;;;5034305;28;20026;-82
2023/06/10 12:48:24;;;;;;;0.30;0.30;;;28.20;99.90;;;;;;5032660;28;20033;-83
2023/06/10 12:50:52;;;;;;;0.03;0.03;;;28.80;99.90;;;;;;5033928;28;20018;-82